Time;durP1;ratioP1;P1;durP2;ratioP2;P2;SDS_P1;SDS_P2;PMS_P1;PMS_P2;Temp;Humidity;BMP_temperature;BMP_pressure;BME280_temperature;BME280_humidity;BME280_pressure;Samples;Min_cycle;Max_cycle;Signal;HPM_P1;HPM_P2
2024/04/05 00:00:54;;;;;;;5.00;1.63;;;16.60;67.50;;;;;;5032815;28;20059;-57
2024/04/05 00:03:39;;;;;;;3.92;1.42;;;16.50;67.30;;;;;;5032596;28;20170;-57
2024/04/05 00:06:24;;;;;;;4.68;1.48;;;16.60;67.50;;;;;;5030732;28;20047;-57
2024/04/05 00:09:09;;;;;;;6.80;2.65;;;16.50;67.40;;;;;;5013176;28;20047;-58
2024/04/05 00:11:53;;;;;;;6.95;2.42;;;16.50;67.40;;;;;;5034181;28;20039;-58
2024/04/05 00:14:38;;;;;;;4.22;2.42;;;16.50;67.50;;;;;;5028287;28;20435;-58
2024/04/05 00:17:23;;;;;;;12.65;3.03;;;16.50;67.50;;;;;;5029627;28;20427;-58
2024/04/05 00:20:09;;;;;;;8.38;2.90;;;16.50;67.50;;;;;;5025314;28;20570;-58
2024/04/05 00:22:53;;;;;;;5.65;1.92;;;16.50;67.50;;;;;;5028577;28;20037;-57
2024/04/05 00:25:38;;;;;;;7.70;2.08;;;16.50;67.50;;;;;;5026210;28;20106;-57
2024/04/05 00:28:22;;;;;;;6.20;1.77;;;16.50;67.60;;;;;;5028296;28;20075;-58
2024/04/05 00:31:10;;;;;;;7.60;2.55;;;16.50;67.70;;;;;;5033029;28;20044;-58
2024/04/05 00:33:55;;;;;;;7.07;2.25;;;16.50;67.70;;;;;;5030587;28;20040;-56
2024/04/05 00:36:40;;;;;;;6.55;2.00;;;16.40;67.50;;;;;;5015356;28;20111;-58
2024/04/05 00:39:24;;;;;;;6.68;2.17;;;16.50;67.70;;;;;;5025848;28;20569;-56
2024/04/05 00:42:09;;;;;;;8.32;1.90;;;16.40;67.50;;;;;;5028114;28;20490;-53
2024/04/05 00:44:54;;;;;;;8.73;2.65;;;16.40;67.50;;;;;;5031245;28;20048;-51
2024/04/05 00:47:38;;;;;;;5.50;2.28;;;16.40;67.60;;;;;;5025922;28;20556;-49
2024/04/05 00:50:23;;;;;;;6.78;2.50;;;16.40;67.60;;;;;;5032293;28;20036;-52
2024/04/05 00:53:16;;;;;;;5.10;2.00;;;16.40;67.60;;;;;;5028058;28;20086;-51
2024/04/05 00:56:02;;;;;;;7.03;2.45;;;16.40;67.70;;;;;;5027634;28;20068;-50
2024/04/05 00:58:47;;;;;;;5.60;1.63;;;16.40;67.70;;;;;;5030487;28;20074;-52
2024/04/05 01:01:32;;;;;;;10.07;2.63;;;16.40;67.70;;;;;;5032200;28;20032;-58
2024/04/05 01:04:17;;;;;;;7.13;1.98;;;16.40;67.70;;;;;;5018773;28;20286;-55
2024/04/05 01:07:01;;;;;;;6.40;2.30;;;16.40;67.70;;;;;;5029307;28;20048;-50
2024/04/05 01:09:46;;;;;;;8.80;2.47;;;16.40;67.80;;;;;;5012575;28;20563;-48
2024/04/05 01:12:30;;;;;;;7.68;2.30;;;16.30;67.70;;;;;;5023812;28;20114;-49
2024/04/05 01:15:15;;;;;;;6.32;2.75;;;16.30;67.70;;;;;;5030016;28;20056;-49
2024/04/05 01:18:03;;;;;;;9.10;3.05;;;16.30;67.70;;;;;;5017801;28;20602;-49
2024/04/05 01:20:50;;;;;;;7.85;1.80;;;16.30;67.70;;;;;;5029802;28;20035;-55
2024/04/05 01:23:42;;;;;;;6.22;1.90;;;16.30;67.80;;;;;;5033491;28;20606;-51
2024/04/05 01:26:29;;;;;;;6.35;2.80;;;16.30;67.80;;;;;;5032682;28;20607;-53
2024/04/05 01:29:13;;;;;;;6.57;1.80;;;16.30;67.80;;;;;;5033929;28;20083;-55
2024/04/05 01:31:58;;;;;;;5.95;2.55;;;16.30;67.80;;;;;;5033807;28;20645;-55
2024/04/05 01:34:42;;;;;;;6.82;3.00;;;16.30;67.90;;;;;;5030288;28;20157;-55
2024/04/05 01:37:27;;;;;;;6.97;2.80;;;16.30;67.90;;;;;;5032830;28;20048;-56
2024/04/05 01:40:12;;;;;;;7.43;1.75;;;16.30;67.90;;;;;;5014313;28;20453;-55
2024/04/05 01:42:56;;;;;;;6.00;2.33;;;16.30;68.00;;;;;;5033787;28;20052;-55
2024/04/05 01:45:41;;;;;;;5.25;1.77;;;16.30;68.00;;;;;;5029701;28;20076;-53
2024/04/05 01:48:26;;;;;;;4.72;1.73;;;16.30;68.00;;;;;;5023609;28;20095;-51
2024/04/05 01:51:10;;;;;;;6.07;2.35;;;16.30;68.00;;;;;;5031584;28;20435;-52
2024/04/05 01:53:55;;;;;;;8.20;2.35;;;16.20;67.90;;;;;;5029402;28;20059;-50
2024/04/05 01:56:40;;;;;;;6.15;2.95;;;16.20;67.90;;;;;;5038511;28;20598;-48
2024/04/05 01:59:24;;;;;;;7.10;2.20;;;16.20;68.00;;;;;;5034096;28;20067;-50
2024/04/05 02:02:09;;;;;;;4.53;2.05;;;16.20;68.00;;;;;;5035315;28;20051;-49
2024/04/05 02:04:54;;;;;;;5.30;2.65;;;16.20;68.00;;;;;;5038813;28;20208;-47
2024/04/05 02:07:39;;;;;;;8.82;2.20;;;16.10;67.80;;;;;;5033537;28;20048;-45
2024/04/05 02:10:23;;;;;;;8.88;4.53;;;16.20;68.00;;;;;;5017227;28;20123;-50
2024/04/05 02:13:08;;;;;;;7.35;3.15;;;16.10;67.90;;;;;;5030846;28;20194;-50
2024/04/05 02:15:53;;;;;;;5.28;1.98;;;16.10;68.20;;;;;;5032280;28;20056;-46
2024/04/05 02:18:38;;;;;;;7.32;2.10;;;16.10;68.00;;;;;;5035858;28;20090;-49
2024/04/05 02:21:24;;;;;;;7.10;2.88;;;16.10;68.00;;;;;;5029105;28;20041;-47
2024/04/05 02:24:08;;;;;;;6.40;1.83;;;16.10;68.00;;;;;;5017955;28;20102;-50
2024/04/05 02:26:53;;;;;;;4.57;1.92;;;16.10;68.10;;;;;;5033564;28;20043;-49
2024/04/05 02:29:39;;;;;;;7.20;1.75;;;16.10;68.10;;;;;;5020839;28;20047;-50
2024/04/05 02:32:24;;;;;;;7.93;2.92;;;16.10;68.10;;;;;;5024702;28;20481;-50
2024/04/05 02:35:08;;;;;;;3.90;1.70;;;16.00;68.00;;;;;;5034460;28;20064;-48
2024/04/05 02:37:53;;;;;;;5.50;1.70;;;16.00;68.00;;;;;;5029633;28;20040;-48
2024/04/05 02:40:38;;;;;;;7.78;2.42;;;16.00;68.10;;;;;;5017325;28;20184;-50
2024/04/05 02:43:22;;;;;;;4.32;2.00;;;16.00;68.10;;;;;;5019653;28;20043;-50
2024/04/05 02:46:07;;;;;;;6.18;2.05;;;16.00;68.10;;;;;;5030405;28;20518;-49
2024/04/05 02:48:54;;;;;;;5.22;1.75;;;16.00;68.10;;;;;;5032078;28;20055;-49
2024/04/05 02:51:39;;;;;;;5.55;1.58;;;16.00;68.20;;;;;;5028027;28;20527;-50
2024/04/05 02:54:24;;;;;;;3.17;1.30;;;16.00;68.20;;;;;;5032404;28;20047;-51
2024/04/05 02:57:09;;;;;;;3.20;1.65;;;16.00;68.30;;;;;;5030311;28;20123;-52
2024/04/05 02:59:53;;;;;;;4.70;1.88;;;15.90;68.20;;;;;;5019688;28;20140;-51
2024/04/05 03:02:38;;;;;;;3.70;1.40;;;15.90;68.20;;;;;;5030263;28;20374;-50
2024/04/05 03:05:23;;;;;;;3.88;1.48;;;15.90;68.20;;;;;;5028465;28;20117;-48
2024/04/05 03:08:08;;;;;;;5.05;1.85;;;15.90;68.20;;;;;;5032779;28;20075;-50
2024/04/05 03:10:53;;;;;;;5.80;2.03;;;15.90;68.20;;;;;;5032578;28;20047;-56
2024/04/05 03:13:39;;;;;;;5.25;1.77;;;15.90;68.30;;;;;;5020547;28;20047;-51
2024/04/05 03:16:24;;;;;;;6.50;2.00;;;15.80;68.20;;;;;;5030677;28;20217;-52
2024/04/05 03:19:09;;;;;;;3.75;1.40;;;15.80;68.20;;;;;;5016041;28;20058;-51
2024/04/05 03:21:54;;;;;;;5.75;1.83;;;15.80;68.20;;;;;;5026402;28;20426;-49
2024/04/05 03:24:39;;;;;;;4.30;1.85;;;15.80;68.30;;;;;;5018157;28;20240;-53
2024/04/05 03:27:24;;;;;;;5.20;1.38;;;15.80;68.30;;;;;;5015500;28;20210;-47
2024/04/05 03:30:09;;;;;;;5.20;1.90;;;15.80;68.40;;;;;;5019130;28;20067;-53
2024/04/05 03:32:54;;;;;;;4.95;1.75;;;15.70;68.30;;;;;;5038024;28;20516;-54
2024/04/05 03:35:40;;;;;;;4.90;1.80;;;15.80;68.50;;;;;;5030760;28;20048;-52
2024/04/05 03:38:24;;;;;;;4.50;2.40;;;15.70;68.30;;;;;;5030605;28;20044;-56
2024/04/05 03:41:09;;;;;;;5.03;1.85;;;15.70;68.40;;;;;;5031342;28;20087;-56
2024/04/05 03:43:53;;;;;;;5.25;1.90;;;15.70;68.40;;;;;;5037849;28;20062;-56
2024/04/05 03:46:38;;;;;;;4.68;1.70;;;15.70;68.40;;;;;;5022432;28;20075;-57
2024/04/05 03:49:25;;;;;;;3.40;1.90;;;15.70;68.50;;;;;;5032586;28;20488;-55
2024/04/05 03:52:09;;;;;;;5.32;2.35;;;15.70;68.50;;;;;;5025125;28;20099;-53
2024/04/05 03:54:54;;;;;;;5.38;1.63;;;15.70;68.50;;;;;;5016925;28;20067;-51
2024/04/05 03:57:42;;;;;;;4.65;1.80;;;15.70;68.50;;;;;;5030444;28;20044;-49
2024/04/05 04:00:27;;;;;;;5.07;1.25;;;15.70;68.50;;;;;;5028241;28;20636;-48
2024/04/05 04:03:12;;;;;;;4.57;1.75;;;15.70;68.50;;;;;;5028253;28;20094;-52
2024/04/05 04:05:57;;;;;;;4.15;1.85;;;15.70;68.60;;;;;;5030362;28;20047;-50
2024/04/05 04:08:42;;;;;;;4.40;1.58;;;15.70;68.60;;;;;;5023650;28;20504;-49
2024/04/05 04:11:27;;;;;;;3.67;1.77;;;15.70;68.70;;;;;;5018517;28;20047;-51
2024/04/05 04:14:15;;;;;;;8.10;1.75;;;15.70;68.70;;;;;;5028228;28;20111;-52
2024/04/05 04:16:59;;;;;;;5.53;2.13;;;15.60;68.50;;;;;;5029570;28;20104;-52
2024/04/05 04:19:44;;;;;;;5.25;2.08;;;15.70;68.70;;;;;;5034314;28;20036;-52
2024/04/05 04:22:29;;;;;;;3.33;1.33;;;15.60;68.60;;;;;;5033528;28;20032;-57
2024/04/05 04:25:14;;;;;;;6.75;1.75;;;15.60;68.60;;;;;;5030031;28;20714;-50
2024/04/05 04:27:59;;;;;;;3.55;1.55;;;15.60;68.70;;;;;;5030509;28;20063;-49
2024/04/05 04:30:45;;;;;;;2.35;1.10;;;15.60;68.70;;;;;;5031293;28;20513;-50
2024/04/05 04:33:30;;;;;;;4.90;1.60;;;15.60;68.80;;;;;;5032718;28;20080;-53
2024/04/05 04:36:15;;;;;;;6.03;1.75;;;15.60;68.80;;;;;;5029306;28;20587;-55
2024/04/05 04:39:00;;;;;;;5.07;1.83;;;15.60;68.90;;;;;;5031921;28;20364;-53
2024/04/05 04:41:44;;;;;;;6.28;2.13;;;15.60;68.90;;;;;;5017070;28;20062;-54
2024/04/05 04:44:29;;;;;;;3.53;1.30;;;15.60;69.00;;;;;;5031918;28;20048;-56
2024/04/05 04:47:14;;;;;;;4.45;1.48;;;15.60;69.10;;;;;;5033323;28;20040;-54
2024/04/05 04:49:59;;;;;;;3.15;1.20;;;15.60;69.20;;;;;;5028998;28;20122;-56
2024/04/05 04:52:44;;;;;;;4.20;1.58;;;15.60;69.20;;;;;;5021111;28;20036;-55
2024/04/05 04:55:29;;;;;;;3.38;1.27;;;15.60;69.20;;;;;;5037561;28;20048;-57
2024/04/05 04:58:17;;;;;;;6.35;2.17;;;15.60;69.30;;;;;;5029197;28;20651;-57
2024/04/05 05:01:02;;;;;;;7.93;2.83;;;15.60;69.30;;;;;;5037325;28;20102;-58
2024/04/05 05:03:47;;;;;;;4.95;1.67;;;15.60;69.40;;;;;;5048042;28;20588;-56
2024/04/05 05:06:34;;;;;;;5.05;1.70;;;15.60;69.40;;;;;;5036910;28;20072;-58
2024/04/05 05:09:18;;;;;;;3.72;1.67;;;15.60;69.50;;;;;;5034560;28;20043;-50
2024/04/05 05:12:05;;;;;;;3.65;1.45;;;15.60;69.60;;;;;;5018898;28;20052;-49
2024/04/05 05:14:50;;;;;;;7.93;2.75;;;15.60;69.50;;;;;;5026944;28;20071;-49
2024/04/05 05:17:35;;;;;;;7.32;1.73;;;15.60;69.60;;;;;;5017275;28;20067;-51
2024/04/05 05:20:22;;;;;;;5.80;1.80;;;15.60;69.60;;;;;;5034873;28;20086;-52
2024/04/05 05:23:07;;;;;;;4.55;1.33;;;15.60;69.70;;;;;;5029108;28;20136;-51
2024/04/05 05:25:51;;;;;;;4.03;1.95;;;15.60;69.70;;;;;;5034584;28;20360;-52
2024/04/05 05:28:36;;;;;;;4.65;1.73;;;15.60;69.80;;;;;;5027431;28;20056;-56
2024/04/05 05:31:21;;;;;;;5.57;1.55;;;15.60;69.80;;;;;;5040462;28;20060;-55
2024/04/05 05:34:06;;;;;;;5.40;1.60;;;15.60;69.80;;;;;;5039355;28;20197;-55
2024/04/05 05:36:52;;;;;;;5.57;2.00;;;15.60;69.90;;;;;;5017636;28;20047;-56
2024/04/05 05:39:37;;;;;;;6.60;2.20;;;15.60;69.90;;;;;;5027428;28;20522;-54
2024/04/05 05:42:24;;;;;;;6.03;1.70;;;15.60;70.00;;;;;;5034501;28;20044;-57
2024/04/05 05:45:09;;;;;;;5.32;1.92;;;15.60;70.00;;;;;;5035348;28;20079;-56
2024/04/05 05:47:55;;;;;;;4.85;1.92;;;15.60;70.00;;;;;;5031252;28;20103;-55
2024/04/05 05:50:39;;;;;;;4.30;1.70;;;15.60;70.10;;;;;;5034028;28;20040;-56
2024/04/05 05:53:24;;;;;;;5.20;1.88;;;15.60;70.10;;;;;;5040180;28;20083;-57
2024/04/05 05:56:09;;;;;;;5.53;1.90;;;15.60;70.10;;;;;;5032178;28;20573;-55
2024/04/05 05:58:54;;;;;;;4.07;1.45;;;15.60;70.10;;;;;;5023365;28;20113;-54
2024/04/05 06:01:39;;;;;;;3.38;1.30;;;15.60;70.20;;;;;;5035698;28;20502;-53
2024/04/05 06:04:27;;;;;;;4.68;1.27;;;15.60;70.30;;;;;;5035955;28;20564;-54
2024/04/05 06:07:12;;;;;;;6.45;2.47;;;15.60;70.50;;;;;;5033590;28;20557;-57
2024/04/05 06:09:58;;;;;;;9.30;4.68;;;15.70;70.80;;;;;;5037382;28;20071;-56
2024/04/05 06:12:43;;;;;;;12.88;5.53;;;15.70;70.90;;;;;;5039543;28;20044;-62
2024/04/05 06:15:28;;;;;;;8.40;4.82;;;15.70;71.00;;;;;;5036947;28;20507;-56
2024/04/05 06:18:13;;;;;;;7.75;4.95;;;15.80;71.30;;;;;;5042461;28;20139;-60
2024/04/05 06:20:59;;;;;;;7.80;4.28;;;15.80;71.30;;;;;;5015694;28;20035;-60
2024/04/05 06:23:43;;;;;;;8.85;4.28;;;15.80;71.30;;;;;;5051001;28;20684;-60
2024/04/05 06:26:28;;;;;;;8.60;4.18;;;15.90;71.40;;;;;;5034367;28;20166;-58
2024/04/05 06:29:13;;;;;;;8.60;3.70;;;15.90;71.20;;;;;;5032105;28;20052;-57
2024/04/05 06:31:58;;;;;;;6.03;3.05;;;15.90;71.10;;;;;;5020694;28;20107;-58
2024/04/05 06:34:45;;;;;;;8.63;3.90;;;16.00;71.10;;;;;;5023963;28;20044;-58
2024/04/05 06:37:29;;;;;;;9.60;4.00;;;15.90;70.80;;;;;;5040026;28;20050;-59
2024/04/05 06:40:14;;;;;;;10.20;3.80;;;15.90;70.70;;;;;;5035194;28;20600;-57
2024/04/05 06:42:58;;;;;;;6.72;2.63;;;16.00;70.90;;;;;;5041375;28;20251;-57
2024/04/05 06:45:53;;;;;;;6.50;2.97;;;15.90;70.70;;;;;;5029726;28;20154;-61
2024/04/05 06:48:38;;;;;;;7.72;2.50;;;16.00;70.90;;;;;;5048633;28;20044;-57
2024/04/05 06:51:23;;;;;;;8.05;2.30;;;16.00;70.80;;;;;;5021595;28;20044;-57
2024/04/05 06:54:08;;;;;;;8.98;2.45;;;16.10;70.90;;;;;;5036399;28;20102;-58
2024/04/05 06:56:52;;;;;;;8.25;2.70;;;16.20;70.80;;;;;;5041510;28;20051;-57
2024/04/05 06:59:38;;;;;;;7.40;2.80;;;16.30;70.70;;;;;;5040496;28;20472;-63
2024/04/05 07:02:22;;;;;;;5.85;2.40;;;16.40;70.80;;;;;;5016727;28;20106;-60
2024/04/05 07:05:08;;;;;;;6.60;2.67;;;16.50;70.70;;;;;;5034035;28;20048;-59
2024/04/05 07:07:53;;;;;;;9.00;3.80;;;16.60;70.60;;;;;;5036498;28;20122;-61
2024/04/05 07:10:37;;;;;;;7.00;2.58;;;16.70;70.50;;;;;;5034585;28;20055;-58
2024/04/05 07:13:23;;;;;;;9.43;2.58;;;16.80;70.40;;;;;;5038193;28;20512;-58
2024/04/05 07:16:11;;;;;;;9.02;3.33;;;16.90;70.40;;;;;;5034518;28;20036;-59
2024/04/05 07:18:56;;;;;;;7.45;2.95;;;17.00;70.40;;;;;;5029761;28;20091;-58
2024/04/05 07:21:41;;;;;;;8.80;2.58;;;17.00;70.20;;;;;;5038334;28;20117;-59
2024/04/05 07:24:26;;;;;;;8.82;2.63;;;17.20;70.30;;;;;;5017816;28;20397;-58
2024/04/05 07:27:11;;;;;;;7.35;2.47;;;17.30;70.10;;;;;;5021433;28;20044;-61
2024/04/05 07:29:56;;;;;;;8.02;2.63;;;17.30;70.00;;;;;;5010286;28;20056;-59
2024/04/05 07:32:41;;;;;;;7.18;2.65;;;17.40;70.00;;;;;;5037333;28;20051;-59
2024/04/05 07:35:27;;;;;;;7.65;3.00;;;17.40;69.90;;;;;;5031842;28;20088;-58
2024/04/05 07:38:12;;;;;;;8.00;2.63;;;17.40;69.80;;;;;;5042372;28;20039;-58
2024/04/05 07:41:04;;;;;;;8.98;2.60;;;17.50;69.80;;;;;;5034648;28;20521;-58
2024/04/05 07:43:50;;;;;;;11.20;2.72;;;17.50;69.70;;;;;;5036916;28;20215;-59
2024/04/05 07:46:35;;;;;;;8.48;2.22;;;17.60;69.80;;;;;;5019771;28;20407;-58
2024/04/05 07:49:19;;;;;;;9.13;2.67;;;17.60;69.60;;;;;;5039558;28;20035;-59
2024/04/05 07:52:04;;;;;;;10.00;2.53;;;17.60;69.50;;;;;;5031799;28;20510;-60
2024/04/05 07:54:49;;;;;;;8.82;2.70;;;17.60;69.40;;;;;;5035382;28;20036;-59
2024/04/05 07:57:38;;;;;;;9.45;2.90;;;17.60;69.30;;;;;;5038554;28;20085;-61
2024/04/05 08:00:24;;;;;;;10.52;2.63;;;17.70;69.50;;;;;;5029297;28;20044;-58
2024/04/05 08:03:09;;;;;;;12.15;2.92;;;17.60;69.30;;;;;;5026134;28;20557;-59
2024/04/05 08:05:53;;;;;;;11.07;2.55;;;17.60;69.20;;;;;;5034386;28;20601;-59
2024/04/05 08:08:39;;;;;;;6.57;2.22;;;17.60;69.20;;;;;;5020353;28;20067;-59
2024/04/05 08:11:24;;;;;;;10.30;3.25;;;17.60;69.20;;;;;;5032980;28;20055;-60
2024/04/05 08:14:09;;;;;;;8.65;2.63;;;17.70;69.30;;;;;;5022777;28;20123;-60
2024/04/05 08:16:54;;;;;;;10.05;3.47;;;17.70;69.10;;;;;;5034573;28;20044;-59
2024/04/05 08:19:39;;;;;;;7.00;2.60;;;17.80;69.10;;;;;;5031909;28;20551;-61
2024/04/05 08:22:25;;;;;;;10.50;3.13;;;17.90;69.10;;;;;;5011757;28;20040;-59
2024/04/05 08:25:09;;;;;;;6.22;2.10;;;18.00;69.00;;;;;;5032309;28;20150;-60
2024/04/05 08:27:54;;;;;;;5.75;2.00;;;18.10;69.00;;;;;;5032015;28;20044;-59
2024/04/05 08:30:39;;;;;;;9.63;2.70;;;18.20;68.90;;;;;;5034066;28;20238;-60
2024/04/05 08:33:28;;;;;;;12.00;2.92;;;18.40;69.00;;;;;;5023956;28;20351;-59
2024/04/05 08:36:12;;;;;;;8.02;2.50;;;18.50;68.90;;;;;;5031655;28;20116;-59
2024/04/05 08:38:59;;;;;;;9.88;3.70;;;18.60;68.70;;;;;;5025870;28;20184;-59
2024/04/05 08:41:45;;;;;;;9.43;3.60;;;18.60;68.50;;;;;;5021751;28;20430;-64
2024/04/05 08:44:31;;;;;;;12.93;4.85;;;18.80;68.70;;;;;;5030600;28;20048;-58
2024/04/05 08:47:17;;;;;;;7.45;3.13;;;18.80;68.50;;;;;;5031355;28;20086;-60
2024/04/05 08:50:05;;;;;;;10.82;2.88;;;18.90;68.50;;;;;;5034212;28;20107;-60
2024/04/05 08:52:50;;;;;;;9.90;3.33;;;18.90;68.30;;;;;;5033414;28;20099;-59
2024/04/05 08:55:38;;;;;;;7.93;2.10;;;19.00;68.30;;;;;;5045918;28;20059;-59
2024/04/05 08:58:23;;;;;;;8.38;3.28;;;19.00;68.20;;;;;;5033041;28;20088;-66
2024/04/05 09:01:11;;;;;;;8.35;3.42;;;19.00;68.10;;;;;;5027519;28;20205;-66
2024/04/05 09:03:57;;;;;;;12.18;3.10;;;19.10;68.10;;;;;;5017054;28;20035;-58
2024/04/05 09:06:43;;;;;;;10.45;2.83;;;19.20;68.10;;;;;;5030614;28;20178;-59
2024/04/05 09:09:29;;;;;;;9.15;3.10;;;19.20;67.80;;;;;;5045475;28;20079;-59
2024/04/05 09:12:15;;;;;;;7.75;3.03;;;19.30;67.80;;;;;;5033655;28;20699;-60
2024/04/05 09:15:00;;;;;;;9.98;3.35;;;19.30;67.70;;;;;;5030622;28;20473;-60
2024/04/05 09:17:51;;;;;;;7.55;2.97;;;19.40;67.80;;;;;;5016152;28;20082;-59
2024/04/05 09:20:36;;;;;;;9.05;2.58;;;19.50;67.80;;;;;;5030434;28;20577;-59
2024/04/05 09:23:21;;;;;;;9.70;3.17;;;19.60;67.60;;;;;;5030667;28;20043;-59
2024/04/05 09:26:05;;;;;;;9.82;3.38;;;19.70;67.40;;;;;;5025843;28;20048;-59
2024/04/05 09:29:12;;;;;;;12.95;3.33;;;19.80;67.20;;;;;;5016028;28;20168;-59
2024/04/05 09:31:59;;;;;;;9.10;3.85;;;19.90;67.10;;;;;;5032246;28;20066;-60
2024/04/05 09:34:46;;;;;;;11.10;3.50;;;20.10;67.20;;;;;;5031435;28;20040;-58
2024/04/05 09:37:34;;;;;;;7.70;3.67;;;20.20;67.30;;;;;;5034559;28;20039;-60
2024/04/05 09:40:20;;;;;;;7.28;3.03;;;20.30;67.00;;;;;;5034799;28;20061;-58
2024/04/05 09:43:07;;;;;;;6.45;2.63;;;20.40;67.00;;;;;;5044600;28;20111;-58
2024/04/05 09:45:52;;;;;;;7.03;2.22;;;20.50;66.70;;;;;;5040810;28;20093;-59
2024/04/05 09:48:37;;;;;;;7.25;2.30;;;20.70;66.70;;;;;;5036490;28;20128;-59
2024/04/05 09:51:27;;;;;;;7.82;2.47;;;20.90;66.50;;;;;;5038170;28;20060;-59
2024/04/05 09:54:15;;;;;;;10.05;3.22;;;21.00;66.20;;;;;;5038570;28;20396;-57
2024/04/05 09:57:00;;;;;;;7.75;3.30;;;21.10;66.00;;;;;;5033657;28;20423;-58
2024/04/05 09:59:48;;;;;;;7.93;2.55;;;21.30;66.00;;;;;;5040007;28;20351;-59
2024/04/05 10:02:34;;;;;;;6.90;2.85;;;21.40;65.80;;;;;;5037719;28;20044;-59
2024/04/05 10:05:32;;;;;;;4.93;2.60;;;21.50;65.60;;;;;;5023643;28;20546;-59
2024/04/05 10:08:17;;;;;;;6.60;2.30;;;21.60;65.30;;;;;;5038982;28;20068;-61
2024/04/05 10:11:09;;;;;;;8.95;3.67;;;21.70;65.20;;;;;;5035369;28;20071;-59
2024/04/05 10:14:02;;;;;;;8.77;2.75;;;21.90;65.10;;;;;;5043441;28;20581;-59
2024/04/05 10:16:48;;;;;;;11.57;3.75;;;22.00;64.90;;;;;;5043516;28;20600;-60
2024/04/05 10:19:36;;;;;;;8.38;2.97;;;22.10;64.90;;;;;;5037177;28;20545;-58
2024/04/05 10:22:23;;;;;;;11.23;3.50;;;22.20;64.60;;;;;;5032872;28;20360;-59
2024/04/05 10:25:09;;;;;;;10.10;3.42;;;22.30;64.40;;;;;;5020967;28;20165;-58
2024/04/05 10:27:55;;;;;;;8.88;3.10;;;22.30;64.20;;;;;;5032264;28;20408;-59
2024/04/05 10:30:42;;;;;;;7.80;2.85;;;22.30;64.00;;;;;;5035534;28;20072;-58
2024/04/05 10:33:27;;;;;;;7.70;2.25;;;22.30;63.90;;;;;;5037933;28;20222;-58
2024/04/05 10:36:12;;;;;;;7.78;3.05;;;22.30;63.80;;;;;;5036790;28;20558;-58
2024/04/05 10:38:57;;;;;;;8.20;2.67;;;22.20;63.60;;;;;;5027776;28;20568;-59
2024/04/05 10:41:43;;;;;;;6.45;2.50;;;22.20;63.60;;;;;;5034368;28;20119;-58
2024/04/05 10:44:29;;;;;;;7.53;2.78;;;22.10;63.40;;;;;;5035975;28;20094;-59
2024/04/05 10:47:13;;;;;;;7.53;2.38;;;22.10;63.40;;;;;;5021700;28;20055;-58
2024/04/05 10:50:05;;;;;;;12.75;3.40;;;22.10;63.30;;;;;;5018715;28;20562;-57
2024/04/05 10:52:54;;;;;;;9.48;3.15;;;22.10;63.10;;;;;;5044558;28;20458;-59
2024/04/05 10:55:40;;;;;;;8.52;2.58;;;22.20;63.20;;;;;;5038670;28;20086;-58
2024/04/05 10:58:26;;;;;;;8.20;2.65;;;22.20;63.00;;;;;;5031294;28;20097;-59
2024/04/05 11:01:13;;;;;;;9.50;2.70;;;22.20;62.70;;;;;;5028288;28;20066;-61
2024/04/05 11:03:58;;;;;;;8.48;3.03;;;22.30;62.90;;;;;;5035796;28;20626;-59
2024/04/05 11:06:42;;;;;;;16.50;4.18;;;22.30;62.70;;;;;;5032814;28;20051;-59
2024/04/05 11:09:35;;;;;;;40.22;12.10;;;22.20;62.50;;;;;;5030556;28;20475;-60
2024/04/05 11:12:20;;;;;;;24.63;7.90;;;22.20;62.50;;;;;;5035382;28;20334;-59
2024/04/05 11:15:07;;;;;;;21.30;8.30;;;22.30;62.90;;;;;;5030035;28;20111;-59
2024/04/05 11:18:00;;;;;;;22.92;8.35;;;22.30;62.80;;;;;;5017942;28;20043;-60
2024/04/05 11:20:49;;;;;;;;;;;22.40;62.70;;;;;;5019673;28;20079;-59
2024/04/05 11:23:34;;;;;;;16.35;5.22;;;22.40;62.70;;;;;;5031653;28;20215;-60
2024/04/05 11:26:32;;;;;;;16.33;6.00;;;22.50;62.80;;;;;;5021267;28;20056;-58
2024/04/05 11:29:18;;;;;;;16.02;5.57;;;22.60;62.70;;;;;;5031476;28;20424;-59
2024/04/05 11:32:03;;;;;;;18.30;5.57;;;22.60;62.50;;;;;;5024632;28;20052;-60
2024/04/05 11:34:48;;;;;;;12.20;4.75;;;22.60;62.40;;;;;;5020579;28;20086;-58
2024/04/05 11:37:33;;;;;;;13.23;4.75;;;22.60;62.20;;;;;;5031791;28;20040;-58
2024/04/05 11:40:19;;;;;;;13.48;4.68;;;22.60;62.10;;;;;;5011670;28;20095;-60
2024/04/05 11:43:08;;;;;;;13.93;4.15;;;22.70;62.10;;;;;;5018616;28;20110;-61
2024/04/05 11:45:56;;;;;;;11.70;3.60;;;22.80;62.00;;;;;;5035593;28;20040;-58
2024/04/05 11:48:41;;;;;;;10.20;3.45;;;23.00;62.00;;;;;;5042233;28;20085;-58
2024/04/05 11:51:26;;;;;;;12.45;3.45;;;23.00;61.80;;;;;;5041976;28;20128;-59
2024/04/05 11:54:11;;;;;;;11.52;4.40;;;23.10;61.80;;;;;;5030204;28;20044;-59
2024/04/05 11:56:56;;;;;;;12.27;3.60;;;23.10;61.70;;;;;;5017041;28;20043;-59
2024/04/05 11:59:42;;;;;;;10.90;3.90;;;23.10;61.60;;;;;;5041450;28;20107;-59
2024/04/05 12:02:27;;;;;;;12.73;3.45;;;23.20;61.60;;;;;;5034996;28;20588;-58
2024/04/05 12:05:11;;;;;;;10.88;4.80;;;23.30;61.40;;;;;;5031484;28;20525;-58
2024/04/05 12:07:56;;;;;;;12.48;3.50;;;23.40;61.40;;;;;;5032635;28;20043;-59
2024/04/05 12:10:41;;;;;;;11.88;4.10;;;23.40;61.20;;;;;;5031309;28;20075;-58
2024/04/05 12:13:26;;;;;;;10.95;3.53;;;23.50;61.70;;;;;;5030766;28;20287;-59
2024/04/05 12:16:11;;;;;;;10.93;3.80;;;23.40;60.80;;;;;;5031081;28;20043;-61
2024/04/05 12:18:56;;;;;;;10.85;3.92;;;23.50;61.00;;;;;;5034940;28;20040;-58
2024/04/05 12:21:41;;;;;;;7.18;2.67;;;23.60;61.10;;;;;;5032096;28;20047;-59
2024/04/05 12:24:26;;;;;;;9.98;3.95;;;23.60;61.00;;;;;;5036691;28;20040;-59
2024/04/05 12:27:10;;;;;;;10.05;3.08;;;23.70;61.00;;;;;;5021553;28;20129;-59
2024/04/05 12:29:55;;;;;;;8.65;2.95;;;23.70;60.90;;;;;;5023756;28;20052;-59
2024/04/05 12:32:40;;;;;;;9.35;2.95;;;23.70;60.70;;;;;;5034911;28;20162;-58
2024/04/05 12:35:25;;;;;;;10.05;3.53;;;23.80;60.80;;;;;;5011198;28;20188;-59
2024/04/05 12:38:10;;;;;;;9.35;3.47;;;23.80;60.70;;;;;;5022761;28;20040;-59
2024/04/05 12:40:55;;;;;;;8.35;2.90;;;23.90;60.70;;;;;;5033524;28;20119;-59
2024/04/05 12:43:41;;;;;;;9.07;3.20;;;23.90;60.50;;;;;;5014293;28;20128;-59
2024/04/05 12:46:26;;;;;;;10.30;2.97;;;24.00;60.60;;;;;;5034224;28;20423;-58
2024/04/05 12:49:11;;;;;;;9.90;2.92;;;24.00;60.50;;;;;;5025404;28;20056;-58
2024/04/05 12:51:56;;;;;;;10.05;3.42;;;24.00;60.30;;;;;;5024308;28;20249;-58
2024/04/05 12:54:42;;;;;;;7.13;2.30;;;24.00;60.10;;;;;;5041522;28;20099;-58
2024/04/05 12:57:27;;;;;;;9.23;3.58;;;24.00;60.00;;;;;;5045088;28;20051;-58
2024/04/05 13:00:14;;;;;;;7.55;2.83;;;23.90;59.80;;;;;;5014079;28;20044;-59
2024/04/05 13:02:59;;;;;;;8.38;2.67;;;23.90;59.70;;;;;;5035250;28;20454;-61
2024/04/05 13:05:44;;;;;;;5.80;2.20;;;23.90;59.70;;;;;;5033895;28;20052;-58
2024/04/05 13:08:29;;;;;;;10.55;3.05;;;23.90;59.70;;;;;;5013413;28;20059;-58
2024/04/05 13:11:15;;;;;;;7.70;2.63;;;23.90;59.70;;;;;;5033715;28;20102;-58
2024/04/05 13:14:00;;;;;;;10.98;3.13;;;24.00;60.40;;;;;;5038867;28;20360;-59
2024/04/05 13:16:46;;;;;;;8.25;3.83;;;24.00;59.70;;;;;;5036868;28;20095;-58
2024/04/05 13:19:31;;;;;;;9.23;2.83;;;24.10;59.60;;;;;;5040572;28;20183;-58
2024/04/05 13:22:18;;;;;;;6.47;2.22;;;24.20;59.60;;;;;;5042260;28;20055;-61
2024/04/05 13:25:03;;;;;;;6.65;2.47;;;24.20;59.50;;;;;;5036603;28;20044;-59
2024/04/05 13:27:49;;;;;;;7.20;2.67;;;24.20;59.40;;;;;;5034425;28;20229;-59
2024/04/05 13:30:34;;;;;;;8.40;2.67;;;24.20;59.40;;;;;;5043330;28;20118;-58
2024/04/05 13:33:19;;;;;;;7.45;2.22;;;24.20;59.40;;;;;;5038571;28;20225;-59
2024/04/05 13:36:14;;;;;;;6.43;2.42;;;24.20;59.30;;;;;;5029550;28;20099;-58
2024/04/05 13:38:59;;;;;;;7.80;2.33;;;24.20;59.20;;;;;;5040304;28;20059;-60
2024/04/05 13:41:44;;;;;;;6.85;2.72;;;24.30;59.40;;;;;;5034029;28;20110;-59
2024/04/05 13:44:29;;;;;;;9.30;2.70;;;24.30;59.30;;;;;;5040590;28;20548;-59
2024/04/05 13:47:14;;;;;;;8.43;2.85;;;24.30;59.20;;;;;;5012624;28;20124;-59
2024/04/05 13:49:59;;;;;;;7.80;2.75;;;24.30;59.10;;;;;;5024578;28;20553;-58
2024/04/05 13:52:44;;;;;;;7.72;2.58;;;24.30;59.20;;;;;;5046226;28;20385;-59
2024/04/05 13:55:30;;;;;;;12.15;3.75;;;24.20;58.70;;;;;;5038392;28;20090;-59
2024/04/05 13:58:15;;;;;;;6.35;2.20;;;24.20;58.60;;;;;;5030317;28;20044;-58
2024/04/05 14:01:08;;;;;;;7.32;2.28;;;24.20;58.60;;;;;;5036511;28;20070;-59
2024/04/05 14:03:53;;;;;;;10.48;3.00;;;24.30;58.80;;;;;;5031403;28;20044;-59
2024/04/05 14:06:38;;;;;;;6.20;2.42;;;24.30;58.80;;;;;;5034069;28;20048;-59
2024/04/05 14:09:23;;;;;;;7.35;3.05;;;24.40;58.90;;;;;;5031626;28;20066;-59
2024/04/05 14:12:09;;;;;;;5.55;2.05;;;24.40;58.80;;;;;;5023968;28;20119;-64
2024/04/05 14:14:54;;;;;;;4.88;2.05;;;24.50;58.90;;;;;;5036987;28;20355;-59
2024/04/05 14:17:40;;;;;;;8.77;2.47;;;24.50;59.00;;;;;;5047460;28;20286;-60
2024/04/05 14:20:25;;;;;;;6.20;2.00;;;24.50;58.90;;;;;;5042979;28;20356;-59